sensor_id;sensor_type;location;lat;lon;timestamp;P1;durP1;ratioP1;P2;durP2;ratioP2
64061;SDS011;50308;47.438;-1.528;2023-11-19T00:00:26;41.53;;;11.27;;
64061;SDS011;50308;47.438;-1.528;2023-11-19T00:02:52;42.80;;;14.05;;
64061;SDS011;50308;47.438;-1.528;2023-11-19T00:05:18;31.83;;;9.82;;
64061;SDS011;50308;47.438;-1.528;2023-11-19T00:07:43;26.17;;;8.40;;
64061;SDS011;50308;47.438;-1.528;2023-11-19T00:12:43;25.17;;;8.60;;
64061;SDS011;50308;47.438;-1.528;2023-11-19T00:15:09;26.25;;;8.65;;
64061;SDS011;50308;47.438;-1.528;2023-11-19T00:17:41;33.40;;;10.65;;
64061;SDS011;50308;47.438;-1.528;2023-11-19T00:20:12;29.52;;;8.80;;
64061;SDS011;50308;47.438;-1.528;2023-11-19T00:22:38;32.75;;;8.32;;
64061;SDS011;50308;47.438;-1.528;2023-11-19T00:25:05;22.42;;;8.73;;
64061;SDS011;50308;47.438;-1.528;2023-11-19T00:27:31;23.58;;;8.23;;
64061;SDS011;50308;47.438;-1.528;2023-11-19T00:29:56;28.67;;;7.03;;
64061;SDS011;50308;47.438;-1.528;2023-11-19T00:32:22;29.10;;;8.13;;
64061;SDS011;50308;47.438;-1.528;2023-11-19T00:34:48;30.52;;;9.10;;
64061;SDS011;50308;47.438;-1.528;2023-11-19T00:37:14;29.67;;;7.88;;
64061;SDS011;50308;47.438;-1.528;2023-11-19T00:39:40;18.63;;;6.00;;
64061;SDS011;50308;47.438;-1.528;2023-11-19T00:42:06;21.75;;;4.53;;
64061;SDS011;50308;47.438;-1.528;2023-11-19T00:44:32;21.92;;;5.28;;
64061;SDS011;50308;47.438;-1.528;2023-11-19T00:46:58;24.60;;;6.28;;
64061;SDS011;50308;47.438;-1.528;2023-11-19T00:49:25;23.60;;;5.03;;
64061;SDS011;50308;47.438;-1.528;2023-11-19T00:51:50;21.52;;;5.22;;
64061;SDS011;50308;47.438;-1.528;2023-11-19T00:54:16;12.25;;;3.83;;
64061;SDS011;50308;47.438;-1.528;2023-11-19T00:56:42;28.88;;;5.72;;
64061;SDS011;50308;47.438;-1.528;2023-11-19T00:59:07;26.55;;;5.82;;
64061;SDS011;50308;47.438;-1.528;2023-11-19T01:01:33;20.95;;;4.28;;
64061;SDS011;50308;47.438;-1.528;2023-11-19T01:03:59;16.33;;;3.58;;
64061;SDS011;50308;47.438;-1.528;2023-11-19T01:06:28;14.02;;;3.95;;
64061;SDS011;50308;47.438;-1.528;2023-11-19T01:08:54;13.73;;;3.90;;
64061;SDS011;50308;47.438;-1.528;2023-11-19T01:11:22;12.40;;;3.53;;
64061;SDS011;50308;47.438;-1.528;2023-11-19T01:13:48;11.75;;;2.97;;
64061;SDS011;50308;47.438;-1.528;2023-11-19T01:16:14;9.63;;;3.13;;
64061;SDS011;50308;47.438;-1.528;2023-11-19T01:18:39;18.92;;;4.50;;
64061;SDS011;50308;47.438;-1.528;2023-11-19T01:21:05;18.80;;;4.05;;
64061;SDS011;50308;47.438;-1.528;2023-11-19T01:23:31;20.55;;;3.58;;
64061;SDS011;50308;47.438;-1.528;2023-11-19T01:25:57;17.75;;;4.03;;
64061;SDS011;50308;47.438;-1.528;2023-11-19T01:28:23;15.98;;;4.38;;
64061;SDS011;50308;47.438;-1.528;2023-11-19T01:30:52;20.17;;;3.78;;
64061;SDS011;50308;47.438;-1.528;2023-11-19T01:33:18;30.23;;;9.10;;
64061;SDS011;50308;47.438;-1.528;2023-11-19T01:35:44;23.70;;;6.47;;
64061;SDS011;50308;47.438;-1.528;2023-11-19T01:38:09;23.60;;;6.03;;
64061;SDS011;50308;47.438;-1.528;2023-11-19T01:40:35;22.15;;;4.78;;
64061;SDS011;50308;47.438;-1.528;2023-11-19T01:43:02;14.57;;;4.10;;
64061;SDS011;50308;47.438;-1.528;2023-11-19T01:45:29;16.90;;;4.80;;
64061;SDS011;50308;47.438;-1.528;2023-11-19T01:47:56;21.80;;;4.90;;
64061;SDS011;50308;47.438;-1.528;2023-11-19T01:50:23;22.02;;;6.90;;
64061;SDS011;50308;47.438;-1.528;2023-11-19T01:52:50;37.10;;;9.57;;
64061;SDS011;50308;47.438;-1.528;2023-11-19T01:55:22;38.20;;;9.65;;
64061;SDS011;50308;47.438;-1.528;2023-11-19T01:57:48;23.73;;;6.03;;
64061;SDS011;50308;47.438;-1.528;2023-11-19T02:00:16;24.73;;;6.18;;
64061;SDS011;50308;47.438;-1.528;2023-11-19T02:02:44;24.40;;;5.47;;
64061;SDS011;50308;47.438;-1.528;2023-11-19T02:05:11;20.08;;;4.47;;
64061;SDS011;50308;47.438;-1.528;2023-11-19T02:07:38;24.10;;;6.28;;
64061;SDS011;50308;47.438;-1.528;2023-11-19T02:10:04;25.42;;;6.10;;
64061;SDS011;50308;47.438;-1.528;2023-11-19T02:12:30;22.90;;;5.53;;
64061;SDS011;50308;47.438;-1.528;2023-11-19T02:15:00;24.65;;;6.13;;
64061;SDS011;50308;47.438;-1.528;2023-11-19T02:17:30;27.33;;;5.32;;
64061;SDS011;50308;47.438;-1.528;2023-11-19T02:19:57;24.25;;;5.65;;
64061;SDS011;50308;47.438;-1.528;2023-11-19T02:22:23;28.02;;;4.93;;
64061;SDS011;50308;47.438;-1.528;2023-11-19T02:24:49;24.77;;;4.82;;
64061;SDS011;50308;47.438;-1.528;2023-11-19T02:29:47;24.98;;;5.22;;
64061;SDS011;50308;47.438;-1.528;2023-11-19T02:32:14;26.50;;;5.78;;
64061;SDS011;50308;47.438;-1.528;2023-11-19T02:34:40;22.50;;;5.30;;
64061;SDS011;50308;47.438;-1.528;2023-11-19T02:37:06;31.90;;;5.95;;
64061;SDS011;50308;47.438;-1.528;2023-11-19T02:39:31;28.30;;;5.25;;
64061;SDS011;50308;47.438;-1.528;2023-11-19T02:41:57;18.92;;;6.10;;
64061;SDS011;50308;47.438;-1.528;2023-11-19T02:44:23;32.80;;;6.22;;
64061;SDS011;50308;47.438;-1.528;2023-11-19T02:46:48;23.85;;;7.43;;
64061;SDS011;50308;47.438;-1.528;2023-11-19T02:49:14;23.60;;;5.00;;
64061;SDS011;50308;47.438;-1.528;2023-11-19T02:51:40;21.38;;;4.93;;
64061;SDS011;50308;47.438;-1.528;2023-11-19T02:54:06;28.25;;;5.55;;
64061;SDS011;50308;47.438;-1.528;2023-11-19T02:56:32;30.00;;;6.22;;
64061;SDS011;50308;47.438;-1.528;2023-11-19T02:59:02;28.80;;;5.97;;
64061;SDS011;50308;47.438;-1.528;2023-11-19T03:01:39;35.47;;;6.45;;
64061;SDS011;50308;47.438;-1.528;2023-11-19T03:04:08;32.90;;;5.47;;
64061;SDS011;50308;47.438;-1.528;2023-11-19T03:06:37;37.10;;;5.93;;
64061;SDS011;50308;47.438;-1.528;2023-11-19T03:09:02;30.13;;;7.15;;
64061;SDS011;50308;47.438;-1.528;2023-11-19T03:11:33;28.80;;;5.75;;
64061;SDS011;50308;47.438;-1.528;2023-11-19T03:13:58;27.63;;;6.38;;
64061;SDS011;50308;47.438;-1.528;2023-11-19T03:16:24;28.80;;;5.68;;
64061;SDS011;50308;47.438;-1.528;2023-11-19T03:18:50;27.88;;;6.63;;
64061;SDS011;50308;47.438;-1.528;2023-11-19T03:21:15;41.92;;;6.70;;
64061;SDS011;50308;47.438;-1.528;2023-11-19T03:23:41;34.47;;;7.68;;
64061;SDS011;50308;47.438;-1.528;2023-11-19T03:26:06;50.92;;;7.22;;
64061;SDS011;50308;47.438;-1.528;2023-11-19T03:28:33;30.33;;;6.03;;
64061;SDS011;50308;47.438;-1.528;2023-11-19T03:30:59;35.30;;;6.43;;
64061;SDS011;50308;47.438;-1.528;2023-11-19T03:33:25;30.50;;;5.63;;
64061;SDS011;50308;47.438;-1.528;2023-11-19T03:35:52;41.78;;;7.03;;
64061;SDS011;50308;47.438;-1.528;2023-11-19T03:38:18;29.02;;;6.35;;
64061;SDS011;50308;47.438;-1.528;2023-11-19T03:40:44;29.85;;;6.18;;
64061;SDS011;50308;47.438;-1.528;2023-11-19T03:43:09;21.25;;;6.25;;
64061;SDS011;50308;47.438;-1.528;2023-11-19T03:45:35;34.30;;;6.68;;
64061;SDS011;50308;47.438;-1.528;2023-11-19T03:48:01;36.17;;;6.70;;
64061;SDS011;50308;47.438;-1.528;2023-11-19T03:50:27;48.83;;;6.18;;
64061;SDS011;50308;47.438;-1.528;2023-11-19T03:52:52;30.02;;;6.55;;
64061;SDS011;50308;47.438;-1.528;2023-11-19T03:55:18;36.28;;;7.00;;
64061;SDS011;50308;47.438;-1.528;2023-11-19T03:57:43;29.20;;;6.00;;
64061;SDS011;50308;47.438;-1.528;2023-11-19T04:00:09;30.70;;;6.40;;
64061;SDS011;50308;47.438;-1.528;2023-11-19T04:02:39;30.65;;;5.72;;
64061;SDS011;50308;47.438;-1.528;2023-11-19T04:05:05;32.03;;;5.15;;
64061;SDS011;50308;47.438;-1.528;2023-11-19T04:07:34;28.83;;;6.18;;
64061;SDS011;50308;47.438;-1.528;2023-11-19T04:10:01;34.45;;;6.72;;
64061;SDS011;50308;47.438;-1.528;2023-11-19T04:12:26;36.50;;;6.32;;
64061;SDS011;50308;47.438;-1.528;2023-11-19T04:14:52;33.38;;;6.45;;
64061;SDS011;50308;47.438;-1.528;2023-11-19T04:17:18;26.58;;;5.85;;
64061;SDS011;50308;47.438;-1.528;2023-11-19T04:19:43;33.65;;;6.72;;
64061;SDS011;50308;47.438;-1.528;2023-11-19T04:22:09;30.55;;;5.93;;
64061;SDS011;50308;47.438;-1.528;2023-11-19T04:24:35;28.67;;;5.78;;
64061;SDS011;50308;47.438;-1.528;2023-11-19T04:27:01;26.70;;;6.53;;
64061;SDS011;50308;47.438;-1.528;2023-11-19T04:29:27;25.15;;;5.78;;
64061;SDS011;50308;47.438;-1.528;2023-11-19T04:31:52;36.50;;;6.68;;
64061;SDS011;50308;47.438;-1.528;2023-11-19T04:34:19;37.33;;;7.30;;
64061;SDS011;50308;47.438;-1.528;2023-11-19T04:36:45;29.25;;;5.15;;
64061;SDS011;50308;47.438;-1.528;2023-11-19T04:39:10;27.90;;;5.80;;
64061;SDS011;50308;47.438;-1.528;2023-11-19T04:41:41;36.45;;;7.40;;
64061;SDS011;50308;47.438;-1.528;2023-11-19T04:44:11;24.17;;;5.55;;
64061;SDS011;50308;47.438;-1.528;2023-11-19T04:46:37;38.03;;;6.55;;
64061;SDS011;50308;47.438;-1.528;2023-11-19T04:49:03;27.70;;;6.40;;
64061;SDS011;50308;47.438;-1.528;2023-11-19T04:51:29;31.83;;;5.47;;
64061;SDS011;50308;47.438;-1.528;2023-11-19T04:53:55;34.42;;;6.60;;
64061;SDS011;50308;47.438;-1.528;2023-11-19T04:56:21;28.73;;;6.60;;
64061;SDS011;50308;47.438;-1.528;2023-11-19T04:58:48;25.63;;;5.40;;
64061;SDS011;50308;47.438;-1.528;2023-11-19T05:01:14;34.45;;;6.95;;
64061;SDS011;50308;47.438;-1.528;2023-11-19T05:03:42;34.58;;;6.60;;
64061;SDS011;50308;47.438;-1.528;2023-11-19T05:06:08;29.42;;;5.97;;
64061;SDS011;50308;47.438;-1.528;2023-11-19T05:08:34;39.00;;;6.45;;
64061;SDS011;50308;47.438;-1.528;2023-11-19T05:11:00;35.95;;;6.22;;
64061;SDS011;50308;47.438;-1.528;2023-11-19T05:13:26;30.92;;;6.13;;
64061;SDS011;50308;47.438;-1.528;2023-11-19T05:15:52;33.72;;;7.40;;
64061;SDS011;50308;47.438;-1.528;2023-11-19T05:18:17;34.75;;;6.60;;
64061;SDS011;50308;47.438;-1.528;2023-11-19T05:20:43;31.23;;;6.75;;
64061;SDS011;50308;47.438;-1.528;2023-11-19T05:23:10;30.88;;;6.03;;
64061;SDS011;50308;47.438;-1.528;2023-11-19T05:25:36;30.40;;;6.75;;
64061;SDS011;50308;47.438;-1.528;2023-11-19T05:28:02;29.35;;;5.32;;
64061;SDS011;50308;47.438;-1.528;2023-11-19T05:30:27;28.65;;;5.20;;
64061;SDS011;50308;47.438;-1.528;2023-11-19T05:32:53;27.00;;;6.40;;
64061;SDS011;50308;47.438;-1.528;2023-11-19T05:35:18;29.70;;;4.75;;
64061;SDS011;50308;47.438;-1.528;2023-11-19T05:37:44;22.10;;;5.25;;
64061;SDS011;50308;47.438;-1.528;2023-11-19T05:40:10;31.15;;;6.72;;
64061;SDS011;50308;47.438;-1.528;2023-11-19T05:42:42;21.35;;;4.93;;
64061;SDS011;50308;47.438;-1.528;2023-11-19T05:45:10;31.33;;;6.22;;
64061;SDS011;50308;47.438;-1.528;2023-11-19T05:47:37;30.13;;;5.55;;
64061;SDS011;50308;47.438;-1.528;2023-11-19T05:50:02;27.85;;;5.32;;
64061;SDS011;50308;47.438;-1.528;2023-11-19T05:52:30;31.27;;;5.35;;
64061;SDS011;50308;47.438;-1.528;2023-11-19T05:54:59;29.20;;;6.25;;
64061;SDS011;50308;47.438;-1.528;2023-11-19T05:57:28;31.58;;;5.53;;
64061;SDS011;50308;47.438;-1.528;2023-11-19T05:59:54;24.73;;;5.47;;
64061;SDS011;50308;47.438;-1.528;2023-11-19T06:02:20;34.30;;;5.60;;
64061;SDS011;50308;47.438;-1.528;2023-11-19T06:04:45;29.58;;;6.28;;
64061;SDS011;50308;47.438;-1.528;2023-11-19T06:07:13;23.98;;;5.60;;
64061;SDS011;50308;47.438;-1.528;2023-11-19T06:09:40;28.55;;;6.90;;
64061;SDS011;50308;47.438;-1.528;2023-11-19T06:12:06;23.48;;;5.50;;
64061;SDS011;50308;47.438;-1.528;2023-11-19T06:14:32;26.15;;;5.35;;
64061;SDS011;50308;47.438;-1.528;2023-11-19T06:16:58;25.98;;;5.78;;
64061;SDS011;50308;47.438;-1.528;2023-11-19T06:19:23;25.35;;;5.60;;
64061;SDS011;50308;47.438;-1.528;2023-11-19T06:21:52;23.38;;;5.72;;
64061;SDS011;50308;47.438;-1.528;2023-11-19T06:24:17;35.80;;;6.10;;
64061;SDS011;50308;47.438;-1.528;2023-11-19T06:26:43;30.88;;;5.43;;
64061;SDS011;50308;47.438;-1.528;2023-11-19T06:29:08;28.23;;;5.47;;
64061;SDS011;50308;47.438;-1.528;2023-11-19T06:31:34;26.80;;;6.20;;
64061;SDS011;50308;47.438;-1.528;2023-11-19T06:34:00;26.80;;;7.32;;
64061;SDS011;50308;47.438;-1.528;2023-11-19T06:36:25;46.47;;;13.50;;
64061;SDS011;50308;47.438;-1.528;2023-11-19T06:38:51;44.92;;;14.82;;
64061;SDS011;50308;47.438;-1.528;2023-11-19T06:41:17;50.03;;;13.90;;
64061;SDS011;50308;47.438;-1.528;2023-11-19T06:43:43;51.58;;;14.13;;
64061;SDS011;50308;47.438;-1.528;2023-11-19T06:46:15;73.22;;;25.02;;
64061;SDS011;50308;47.438;-1.528;2023-11-19T06:48:41;69.45;;;19.63;;
64061;SDS011;50308;47.438;-1.528;2023-11-19T06:51:09;62.88;;;20.88;;
64061;SDS011;50308;47.438;-1.528;2023-11-19T06:53:34;88.28;;;27.15;;
64061;SDS011;50308;47.438;-1.528;2023-11-19T06:56:01;77.25;;;24.90;;
64061;SDS011;50308;47.438;-1.528;2023-11-19T06:58:31;66.82;;;22.75;;
64061;SDS011;50308;47.438;-1.528;2023-11-19T07:01:02;74.28;;;23.67;;
64061;SDS011;50308;47.438;-1.528;2023-11-19T07:03:31;74.05;;;24.25;;
64061;SDS011;50308;47.438;-1.528;2023-11-19T07:05:57;68.25;;;22.60;;
64061;SDS011;50308;47.438;-1.528;2023-11-19T07:08:22;70.55;;;23.42;;
64061;SDS011;50308;47.438;-1.528;2023-11-19T07:10:48;82.13;;;25.60;;
64061;SDS011;50308;47.438;-1.528;2023-11-19T07:13:14;66.50;;;21.30;;
64061;SDS011;50308;47.438;-1.528;2023-11-19T07:15:40;62.25;;;21.17;;
64061;SDS011;50308;47.438;-1.528;2023-11-19T07:18:05;53.83;;;17.42;;
64061;SDS011;50308;47.438;-1.528;2023-11-19T07:20:31;57.92;;;20.40;;
64061;SDS011;50308;47.438;-1.528;2023-11-19T07:22:58;57.20;;;18.85;;
64061;SDS011;50308;47.438;-1.528;2023-11-19T07:25:23;64.70;;;21.23;;
64061;SDS011;50308;47.438;-1.528;2023-11-19T07:27:49;70.65;;;23.55;;
64061;SDS011;50308;47.438;-1.528;2023-11-19T07:30:16;56.25;;;17.10;;
64061;SDS011;50308;47.438;-1.528;2023-11-19T07:32:42;72.70;;;26.05;;
64061;SDS011;50308;47.438;-1.528;2023-11-19T07:35:08;72.80;;;25.88;;
64061;SDS011;50308;47.438;-1.528;2023-11-19T07:37:34;84.82;;;28.17;;
64061;SDS011;50308;47.438;-1.528;2023-11-19T07:39:59;59.75;;;23.00;;
64061;SDS011;50308;47.438;-1.528;2023-11-19T07:42:25;66.15;;;22.83;;
64061;SDS011;50308;47.438;-1.528;2023-11-19T07:44:51;70.50;;;21.63;;
64061;SDS011;50308;47.438;-1.528;2023-11-19T07:47:16;60.88;;;22.30;;
64061;SDS011;50308;47.438;-1.528;2023-11-19T07:49:42;78.72;;;26.67;;
64061;SDS011;50308;47.438;-1.528;2023-11-19T07:52:09;84.45;;;31.45;;
64061;SDS011;50308;47.438;-1.528;2023-11-19T07:54:34;80.88;;;30.08;;
64061;SDS011;50308;47.438;-1.528;2023-11-19T07:57:00;77.03;;;27.23;;
64061;SDS011;50308;47.438;-1.528;2023-11-19T07:59:26;76.75;;;27.60;;
64061;SDS011;50308;47.438;-1.528;2023-11-19T08:01:52;88.72;;;31.05;;
64061;SDS011;50308;47.438;-1.528;2023-11-19T08:04:17;90.13;;;30.63;;
64061;SDS011;50308;47.438;-1.528;2023-11-19T08:06:43;87.78;;;33.70;;
64061;SDS011;50308;47.438;-1.528;2023-11-19T08:09:09;80.95;;;31.35;;
64061;SDS011;50308;47.438;-1.528;2023-11-19T08:11:39;83.63;;;29.88;;
64061;SDS011;50308;47.438;-1.528;2023-11-19T08:14:05;103.63;;;36.63;;
64061;SDS011;50308;47.438;-1.528;2023-11-19T08:16:31;80.13;;;26.95;;
64061;SDS011;50308;47.438;-1.528;2023-11-19T08:18:56;61.97;;;22.05;;
64061;SDS011;50308;47.438;-1.528;2023-11-19T08:21:23;65.47;;;24.40;;
64061;SDS011;50308;47.438;-1.528;2023-11-19T08:23:49;80.13;;;27.25;;
64061;SDS011;50308;47.438;-1.528;2023-11-19T08:26:15;75.32;;;25.17;;
64061;SDS011;50308;47.438;-1.528;2023-11-19T08:28:41;69.07;;;26.77;;
64061;SDS011;50308;47.438;-1.528;2023-11-19T08:31:06;75.38;;;28.00;;
64061;SDS011;50308;47.438;-1.528;2023-11-19T08:33:32;70.82;;;27.10;;
64061;SDS011;50308;47.438;-1.528;2023-11-19T08:35:58;79.05;;;27.15;;
64061;SDS011;50308;47.438;-1.528;2023-11-19T08:38:24;67.70;;;23.25;;
64061;SDS011;50308;47.438;-1.528;2023-11-19T08:40:50;64.10;;;23.00;;
64061;SDS011;50308;47.438;-1.528;2023-11-19T08:43:17;73.53;;;25.45;;
64061;SDS011;50308;47.438;-1.528;2023-11-19T08:45:42;69.63;;;23.88;;
64061;SDS011;50308;47.438;-1.528;2023-11-19T08:48:08;70.25;;;21.98;;
64061;SDS011;50308;47.438;-1.528;2023-11-19T08:50:34;70.07;;;26.60;;
64061;SDS011;50308;47.438;-1.528;2023-11-19T08:53:00;63.35;;;22.52;;
64061;SDS011;50308;47.438;-1.528;2023-11-19T08:55:25;60.03;;;21.58;;
64061;SDS011;50308;47.438;-1.528;2023-11-19T08:57:51;70.68;;;22.90;;
64061;SDS011;50308;47.438;-1.528;2023-11-19T09:00:17;71.75;;;26.77;;
64061;SDS011;50308;47.438;-1.528;2023-11-19T09:02:43;71.88;;;24.50;;
64061;SDS011;50308;47.438;-1.528;2023-11-19T09:05:08;81.03;;;29.63;;
64061;SDS011;50308;47.438;-1.528;2023-11-19T09:07:34;77.30;;;25.50;;
64061;SDS011;50308;47.438;-1.528;2023-11-19T09:10:00;67.20;;;24.30;;
64061;SDS011;50308;47.438;-1.528;2023-11-19T09:12:26;74.05;;;24.13;;
64061;SDS011;50308;47.438;-1.528;2023-11-19T09:14:52;70.85;;;25.35;;
64061;SDS011;50308;47.438;-1.528;2023-11-19T09:17:18;78.93;;;29.17;;
64061;SDS011;50308;47.438;-1.528;2023-11-19T09:19:43;75.75;;;25.90;;
64061;SDS011;50308;47.438;-1.528;2023-11-19T09:22:09;103.43;;;35.75;;
64061;SDS011;50308;47.438;-1.528;2023-11-19T09:24:35;74.32;;;25.05;;
64061;SDS011;50308;47.438;-1.528;2023-11-19T09:27:00;60.90;;;22.85;;
64061;SDS011;50308;47.438;-1.528;2023-11-19T09:29:26;85.20;;;29.30;;
64061;SDS011;50308;47.438;-1.528;2023-11-19T09:31:52;113.65;;;35.97;;
64061;SDS011;50308;47.438;-1.528;2023-11-19T09:34:17;89.43;;;25.77;;
64061;SDS011;50308;47.438;-1.528;2023-11-19T09:36:43;118.43;;;37.45;;
64061;SDS011;50308;47.438;-1.528;2023-11-19T09:39:09;106.82;;;33.03;;
64061;SDS011;50308;47.438;-1.528;2023-11-19T09:41:35;76.15;;;22.52;;
64061;SDS011;50308;47.438;-1.528;2023-11-19T09:44:01;76.82;;;25.67;;
64061;SDS011;50308;47.438;-1.528;2023-11-19T09:46:26;74.63;;;21.83;;
64061;SDS011;50308;47.438;-1.528;2023-11-19T09:48:54;86.20;;;27.92;;
64061;SDS011;50308;47.438;-1.528;2023-11-19T09:51:22;60.05;;;20.15;;
64061;SDS011;50308;47.438;-1.528;2023-11-19T09:53:48;65.05;;;22.30;;
64061;SDS011;50308;47.438;-1.528;2023-11-19T09:56:14;87.25;;;25.63;;
64061;SDS011;50308;47.438;-1.528;2023-11-19T09:58:42;81.80;;;25.65;;
64061;SDS011;50308;47.438;-1.528;2023-11-19T10:01:07;68.22;;;24.00;;
64061;SDS011;50308;47.438;-1.528;2023-11-19T10:03:36;111.05;;;33.80;;
64061;SDS011;50308;47.438;-1.528;2023-11-19T10:06:08;84.05;;;26.25;;
64061;SDS011;50308;47.438;-1.528;2023-11-19T10:08:38;71.05;;;21.65;;
64061;SDS011;50308;47.438;-1.528;2023-11-19T10:11:06;62.15;;;21.50;;
64061;SDS011;50308;47.438;-1.528;2023-11-19T10:13:36;71.63;;;23.48;;
64061;SDS011;50308;47.438;-1.528;2023-11-19T10:16:08;80.15;;;24.38;;
64061;SDS011;50308;47.438;-1.528;2023-11-19T10:18:36;67.47;;;21.00;;
64061;SDS011;50308;47.438;-1.528;2023-11-19T10:21:06;55.45;;;14.88;;
64061;SDS011;50308;47.438;-1.528;2023-11-19T10:23:47;51.35;;;14.80;;
64061;SDS011;50308;47.438;-1.528;2023-11-19T10:26:14;51.92;;;15.93;;
64061;SDS011;50308;47.438;-1.528;2023-11-19T10:28:40;56.25;;;13.32;;
64061;SDS011;50308;47.438;-1.528;2023-11-19T10:31:09;51.30;;;14.38;;
64061;SDS011;50308;47.438;-1.528;2023-11-19T10:33:35;59.78;;;19.48;;
64061;SDS011;50308;47.438;-1.528;2023-11-19T10:36:00;57.05;;;19.48;;
64061;SDS011;50308;47.438;-1.528;2023-11-19T10:38:26;57.05;;;15.02;;
64061;SDS011;50308;47.438;-1.528;2023-11-19T10:40:52;57.22;;;16.88;;
64061;SDS011;50308;47.438;-1.528;2023-11-19T10:43:19;48.45;;;13.07;;
64061;SDS011;50308;47.438;-1.528;2023-11-19T10:45:48;60.35;;;16.45;;
64061;SDS011;50308;47.438;-1.528;2023-11-19T10:48:14;70.75;;;21.33;;
64061;SDS011;50308;47.438;-1.528;2023-11-19T10:50:41;51.80;;;15.57;;
64061;SDS011;50308;47.438;-1.528;2023-11-19T10:53:08;58.95;;;13.52;;
64061;SDS011;50308;47.438;-1.528;2023-11-19T10:55:36;53.10;;;13.38;;
64061;SDS011;50308;47.438;-1.528;2023-11-19T10:58:06;37.45;;;11.65;;
64061;SDS011;50308;47.438;-1.528;2023-11-19T11:03:21;47.90;;;12.77;;
64061;SDS011;50308;47.438;-1.528;2023-11-19T11:05:48;50.88;;;12.07;;
64061;SDS011;50308;47.438;-1.528;2023-11-19T11:08:15;46.13;;;12.70;;
64061;SDS011;50308;47.438;-1.528;2023-11-19T11:10:54;55.50;;;14.63;;
64061;SDS011;50308;47.438;-1.528;2023-11-19T11:13:22;52.88;;;16.65;;
64061;SDS011;50308;47.438;-1.528;2023-11-19T11:15:49;49.60;;;14.70;;
64061;SDS011;50308;47.438;-1.528;2023-11-19T11:18:16;43.63;;;12.38;;
64061;SDS011;50308;47.438;-1.528;2023-11-19T11:20:46;39.90;;;11.13;;
64061;SDS011;50308;47.438;-1.528;2023-11-19T11:25:54;39.03;;;9.30;;
64061;SDS011;50308;47.438;-1.528;2023-11-19T11:28:31;47.97;;;14.73;;
64061;SDS011;50308;47.438;-1.528;2023-11-19T11:31:12;51.80;;;12.57;;
64061;SDS011;50308;47.438;-1.528;2023-11-19T11:33:59;45.97;;;10.95;;
64061;SDS011;50308;47.438;-1.528;2023-11-19T11:39:39;47.78;;;12.65;;
64061;SDS011;50308;47.438;-1.528;2023-11-19T11:45:16;38.88;;;10.38;;
64061;SDS011;50308;47.438;-1.528;2023-11-19T11:50:13;34.25;;;8.63;;
64061;SDS011;50308;47.438;-1.528;2023-11-19T11:55:24;34.08;;;8.30;;
64061;SDS011;50308;47.438;-1.528;2023-11-19T11:57:49;35.03;;;10.43;;
64061;SDS011;50308;47.438;-1.528;2023-11-19T12:00:22;33.60;;;9.63;;
64061;SDS011;50308;47.438;-1.528;2023-11-19T12:02:51;31.17;;;7.68;;
64061;SDS011;50308;47.438;-1.528;2023-11-19T12:05:17;36.47;;;8.02;;
64061;SDS011;50308;47.438;-1.528;2023-11-19T12:07:49;34.05;;;9.18;;
64061;SDS011;50308;47.438;-1.528;2023-11-19T12:10:20;37.33;;;12.65;;
64061;SDS011;50308;47.438;-1.528;2023-11-19T12:12:47;41.00;;;13.35;;
64061;SDS011;50308;47.438;-1.528;2023-11-19T12:15:12;36.50;;;10.30;;
64061;SDS011;50308;47.438;-1.528;2023-11-19T12:17:49;35.15;;;9.77;;
64061;SDS011;50308;47.438;-1.528;2023-11-19T12:20:16;23.75;;;7.28;;
64061;SDS011;50308;47.438;-1.528;2023-11-19T12:22:43;29.77;;;8.85;;
64061;SDS011;50308;47.438;-1.528;2023-11-19T12:25:10;42.40;;;11.38;;
64061;SDS011;50308;47.438;-1.528;2023-11-19T12:27:47;33.42;;;9.02;;
64061;SDS011;50308;47.438;-1.528;2023-11-19T12:30:23;28.23;;;7.53;;
64061;SDS011;50308;47.438;-1.528;2023-11-19T12:32:49;31.08;;;6.97;;
64061;SDS011;50308;47.438;-1.528;2023-11-19T12:35:16;29.55;;;9.63;;
64061;SDS011;50308;47.438;-1.528;2023-11-19T12:37:42;31.27;;;6.85;;
64061;SDS011;50308;47.438;-1.528;2023-11-19T12:42:47;26.17;;;6.05;;
64061;SDS011;50308;47.438;-1.528;2023-11-19T12:45:19;28.15;;;6.95;;
64061;SDS011;50308;47.438;-1.528;2023-11-19T12:47:46;28.67;;;7.43;;
64061;SDS011;50308;47.438;-1.528;2023-11-19T12:50:14;37.13;;;7.65;;
64061;SDS011;50308;47.438;-1.528;2023-11-19T12:52:56;27.88;;;8.23;;
64061;SDS011;50308;47.438;-1.528;2023-11-19T12:57:52;30.58;;;5.57;;
64061;SDS011;50308;47.438;-1.528;2023-11-19T13:00:20;27.45;;;6.65;;
64061;SDS011;50308;47.438;-1.528;2023-11-19T13:02:47;21.95;;;5.57;;
64061;SDS011;50308;47.438;-1.528;2023-11-19T13:05:23;24.52;;;6.45;;
64061;SDS011;50308;47.438;-1.528;2023-11-19T13:07:51;26.15;;;6.55;;
64061;SDS011;50308;47.438;-1.528;2023-11-19T13:10:23;19.65;;;5.25;;
64061;SDS011;50308;47.438;-1.528;2023-11-19T13:13:05;32.33;;;7.22;;
64061;SDS011;50308;47.438;-1.528;2023-11-19T13:15:33;27.00;;;6.03;;
64061;SDS011;50308;47.438;-1.528;2023-11-19T13:18:00;23.92;;;6.68;;
64061;SDS011;50308;47.438;-1.528;2023-11-19T13:20:26;26.95;;;5.78;;
64061;SDS011;50308;47.438;-1.528;2023-11-19T13:22:59;22.58;;;6.60;;
64061;SDS011;50308;47.438;-1.528;2023-11-19T13:25:26;28.73;;;5.72;;
64061;SDS011;50308;47.438;-1.528;2023-11-19T13:27:52;28.38;;;6.15;;
64061;SDS011;50308;47.438;-1.528;2023-11-19T13:30:19;30.58;;;7.32;;
64061;SDS011;50308;47.438;-1.528;2023-11-19T13:35:12;28.30;;;5.75;;
64061;SDS011;50308;47.438;-1.528;2023-11-19T13:37:38;23.10;;;5.30;;
64061;SDS011;50308;47.438;-1.528;2023-11-19T13:40:04;26.85;;;6.70;;
64061;SDS011;50308;47.438;-1.528;2023-11-19T13:42:32;32.50;;;6.60;;
64061;SDS011;50308;47.438;-1.528;2023-11-19T13:44:57;23.77;;;5.43;;
64061;SDS011;50308;47.438;-1.528;2023-11-19T13:47:23;25.73;;;6.72;;
64061;SDS011;50308;47.438;-1.528;2023-11-19T13:49:49;18.20;;;5.47;;
64061;SDS011;50308;47.438;-1.528;2023-11-19T13:52:15;25.60;;;5.57;;
64061;SDS011;50308;47.438;-1.528;2023-11-19T13:54:41;21.80;;;5.00;;
64061;SDS011;50308;47.438;-1.528;2023-11-19T13:57:06;31.33;;;6.15;;
64061;SDS011;50308;47.438;-1.528;2023-11-19T13:59:32;26.35;;;5.70;;
64061;SDS011;50308;47.438;-1.528;2023-11-19T14:01:58;21.02;;;6.85;;
64061;SDS011;50308;47.438;-1.528;2023-11-19T14:04:23;24.83;;;5.10;;
64061;SDS011;50308;47.438;-1.528;2023-11-19T14:06:50;23.17;;;5.93;;
64061;SDS011;50308;47.438;-1.528;2023-11-19T14:09:16;29.42;;;5.90;;
64061;SDS011;50308;47.438;-1.528;2023-11-19T14:11:42;37.85;;;13.48;;
64061;SDS011;50308;47.438;-1.528;2023-11-19T14:14:08;39.45;;;13.48;;
64061;SDS011;50308;47.438;-1.528;2023-11-19T14:16:34;37.47;;;14.02;;
64061;SDS011;50308;47.438;-1.528;2023-11-19T14:18:59;30.38;;;9.27;;
64061;SDS011;50308;47.438;-1.528;2023-11-19T14:21:25;27.48;;;7.45;;
64061;SDS011;50308;47.438;-1.528;2023-11-19T14:23:51;26.70;;;9.05;;
64061;SDS011;50308;47.438;-1.528;2023-11-19T14:26:17;27.52;;;8.13;;
64061;SDS011;50308;47.438;-1.528;2023-11-19T14:28:44;22.67;;;7.80;;
64061;SDS011;50308;47.438;-1.528;2023-11-19T14:31:09;20.85;;;6.10;;
64061;SDS011;50308;47.438;-1.528;2023-11-19T14:33:35;19.85;;;5.63;;
64061;SDS011;50308;47.438;-1.528;2023-11-19T14:36:03;20.13;;;4.18;;
64061;SDS011;50308;47.438;-1.528;2023-11-19T14:38:29;23.23;;;4.85;;
64061;SDS011;50308;47.438;-1.528;2023-11-19T14:40:54;22.48;;;4.13;;
64061;SDS011;50308;47.438;-1.528;2023-11-19T14:43:20;17.15;;;3.88;;